Campeche Bay — P3ZF9 — position and weather

sailwx.info

Track history (hours):
 
Tides and Currents Weather Stations Pressure Air Temp Water Temp Dewpoint Dewpoint Depression Visibility Wind Speed Wind Dir Waves Ship Positions

Campeche Bay

Last reported at 2015-Mar-31 08:33 UTC. Time now 2015-Apr-01 08:05 UTC.
Position N 29°31' W 094°53'.

Length 90 m; draft 4.5 m.

Type: Cargo ship. MMSI: 209641000.

Date/timePositionNaut miles runAvg speedWind from/ knotsBaromVisibWave heightAir tempDewpointWater temp
2015-Mar-31 08:33N 29°31' W 094°53'9 9.0
2015-Mar-31 07:33N 29°39' W 094°58'3 2.8
2015-Mar-31 06:33N 29°41' W 095°00'0 0.0
2015-Mar-31 05:21N 29°41' W 095°00'0 0.0
2015-Mar-31 04:33N 29°41' W 095°00'0 0.0
2015-Mar-31 03:33N 29°41' W 095°00'0 0.0
2015-Mar-31 02:33N 29°41' W 095°00'0 0.0
2015-Mar-31 01:30N 29°41' W 095°00'0 0.0
2015-Mar-31 00:33N 29°41' W 095°00'0 0.0
2015-Mar-30 23:33N 29°41' W 095°00'0 0.0
2015-Mar-30 22:30N 29°41' W 095°00'0 0.0
2015-Mar-30 21:33N 29°41' W 095°00'0 0.0
2015-Mar-30 20:33N 29°41' W 095°00'0 0.0
2015-Mar-30 19:33N 29°41' W 095°00'0 0.0
2015-Mar-30 18:33N 29°41' W 095°00'0 0.0
2015-Mar-30 17:24N 29°41' W 095°00'0 0.0
2015-Mar-30 16:27N 29°41' W 095°00'0 0.0
2015-Mar-30 15:33N 29°41' W 095°00'0 0.0
2015-Mar-30 14:30N 29°41' W 095°00'0 0.0
2015-Mar-30 13:33N 29°41' W 095°00'0 0.0
2015-Mar-30 12:33N 29°41' W 095°00'0 0.0
2015-Mar-30 11:33N 29°41' W 095°00'0 0.0
2015-Mar-30 10:33N 29°41' W 095°00'0 0.0
2015-Mar-30 09:33N 29°41' W 095°00'1 0.6
2015-Mar-30 08:31N 29°41' W 094°60'0 0.0
2015-Mar-30 07:22N 29°41' W 094°60'0 0.0
2015-Mar-30 06:31N 29°41' W 094°60'0 0.0
2015-Mar-30 05:31N 29°41' W 094°60'0 0.0
2015-Mar-30 04:31N 29°41' W 094°60'0 0.0
2015-Mar-30 03:28N 29°41' W 094°60'0 0.0
2015-Mar-30 02:31N 29°41' W 094°60'0 0.0
2015-Mar-30 01:31N 29°41' W 094°60'0 0.0
2015-Mar-30 00:28N 29°41' W 094°60'0 0.0
2015-Mar-29 23:31N 29°41' W 094°60'0 0.0
2015-Mar-29 22:31N 29°41' W 094°60'0 0.0
2015-Mar-29 21:31N 29°41' W 094°60'0 0.0
2015-Mar-29 20:31N 29°41' W 094°60'0 0.0
2015-Mar-29 19:22N 29°41' W 094°60'0 0.0
2015-Mar-29 18:31N 29°41' W 094°60'0 0.0
2015-Mar-29 17:31N 29°41' W 094°60'0 0.0
2015-Mar-29 16:31N 29°41' W 094°60'0 0.0
2015-Mar-29 15:31N 29°41' W 094°60'0 0.0
2015-Mar-29 14:31N 29°41' W 094°60'0 0.0
2015-Mar-29 13:28N 29°41' W 094°60'0 0.0
2015-Mar-29 12:31N 29°41' W 094°60'0 0.0
2015-Mar-29 11:31N 29°41' W 094°60'0 0.0
2015-Mar-29 10:31N 29°41' W 094°60'0 0.0
2015-Mar-29 09:31N 29°41' W 094°60'0 0.0
2015-Mar-29 08:31N 29°41' W 094°60'0 0.0
2015-Mar-29 07:31N 29°41' W 094°60'0 0.0
2015-Mar-29 06:31N 29°41' W 094°60'0 0.0
2015-Mar-29 05:31N 29°41' W 094°60'0 0.0
2015-Mar-29 04:31N 29°41' W 094°60'0 0.0
2015-Mar-29 03:31N 29°41' W 094°60'0 0.0
2015-Mar-29 02:31N 29°41' W 094°60'0 0.0
2015-Mar-29 01:31N 29°41' W 094°60'0 0.0
2015-Mar-29 00:31N 29°41' W 094°60'0 0.0
2015-Mar-28 23:31N 29°41' W 094°60'0 0.0
2015-Mar-28 22:31N 29°41' W 094°60'0 0.0
2015-Mar-28 21:31N 29°41' W 094°60'0 0.0
2015-Mar-28 20:31N 29°41' W 094°60'0 0.0
2015-Mar-28 19:31N 29°41' W 094°60'0 0.0
2015-Mar-28 18:31N 29°41' W 094°60'0 0.0
2015-Mar-28 17:31N 29°41' W 094°60'0 0.0
2015-Mar-28 16:31N 29°41' W 094°60'0 0.0
2015-Mar-28 15:31N 29°41' W 094°60'0 0.0
2015-Mar-28 14:28N 29°41' W 094°60'0 0.0
2015-Mar-28 13:31N 29°41' W 094°60'0 0.0
2015-Mar-28 12:31N 29°41' W 094°60'0 0.0
2015-Mar-28 11:31N 29°41' W 094°60'0 0.0
2015-Mar-28 10:31N 29°41' W 094°60'0 0.0
2015-Mar-28 09:31N 29°41' W 094°60'0 0.0
2015-Mar-28 08:31N 29°41' W 094°60'0 0.0
2015-Mar-28 07:31N 29°41' W 094°60'0 0.0
2015-Mar-28 06:31N 29°41' W 094°60'0 0.0
2015-Mar-28 05:31N 29°41' W 094°60'0 0.0
2015-Mar-28 04:31N 29°41' W 094°60'0 0.0
2015-Mar-28 03:28N 29°41' W 094°60'0 0.0
2015-Mar-28 02:33N 29°41' W 094°60'4 4.4
2015-Mar-28 01:33N 29°37' W 094°57'9 8.9
2015-Mar-28 00:33N 29°29' W 094°52'9 9.0
2015-Mar-27 23:32N 29°21' W 094°47'  
2015-Mar-24 15:21N 29°16' W 094°32'  
Track history (hours):
 
Tides and Currents Weather Stations Pressure Air Temp Water Temp Dewpoint Dewpoint Depression Visibility Wind Speed Wind Dir Waves Ship Positions

Campeche Bay

Last reported at 2015-Mar-31 08:33 UTC. Time now 2015-Apr-01 08:05 UTC.
Position N 29°31' W 094°53'.

Length 90 m; draft 4.5 m.

Type: Cargo ship. MMSI: 209641000.

Date/timePositionNaut miles runAvg speedWind from/ knotsBaromVisibWave heightAir tempDewpointWater temp
2015-Mar-31 08:33N 29°31' W 094°53'9 9.0
2015-Mar-31 07:33N 29°39' W 094°58'3 2.8
2015-Mar-31 06:33N 29°41' W 095°00'0 0.0
2015-Mar-31 05:21N 29°41' W 095°00'0 0.0
2015-Mar-31 04:33N 29°41' W 095°00'0 0.0
2015-Mar-31 03:33N 29°41' W 095°00'0 0.0
2015-Mar-31 02:33N 29°41' W 095°00'0 0.0
2015-Mar-31 01:30N 29°41' W 095°00'0 0.0
2015-Mar-31 00:33N 29°41' W 095°00'0 0.0
2015-Mar-30 23:33N 29°41' W 095°00'0 0.0
2015-Mar-30 22:30N 29°41' W 095°00'0 0.0
2015-Mar-30 21:33N 29°41' W 095°00'0 0.0
2015-Mar-30 20:33N 29°41' W 095°00'0 0.0
2015-Mar-30 19:33N 29°41' W 095°00'0 0.0
2015-Mar-30 18:33N 29°41' W 095°00'0 0.0
2015-Mar-30 17:24N 29°41' W 095°00'0 0.0
2015-Mar-30 16:27N 29°41' W 095°00'0 0.0
2015-Mar-30 15:33N 29°41' W 095°00'0 0.0
2015-Mar-30 14:30N 29°41' W 095°00'0 0.0
2015-Mar-30 13:33N 29°41' W 095°00'0 0.0
2015-Mar-30 12:33N 29°41' W 095°00'0 0.0
2015-Mar-30 11:33N 29°41' W 095°00'0 0.0
2015-Mar-30 10:33N 29°41' W 095°00'0 0.0
2015-Mar-30 09:33N 29°41' W 095°00'1 0.6
2015-Mar-30 08:31N 29°41' W 094°60'0 0.0
2015-Mar-30 07:22N 29°41' W 094°60'0 0.0
2015-Mar-30 06:31N 29°41' W 094°60'0 0.0
2015-Mar-30 05:31N 29°41' W 094°60'0 0.0
2015-Mar-30 04:31N 29°41' W 094°60'0 0.0
2015-Mar-30 03:28N 29°41' W 094°60'0 0.0
2015-Mar-30 02:31N 29°41' W 094°60'0 0.0
2015-Mar-30 01:31N 29°41' W 094°60'0 0.0
2015-Mar-30 00:28N 29°41' W 094°60'0 0.0
2015-Mar-29 23:31N 29°41' W 094°60'0 0.0
2015-Mar-29 22:31N 29°41' W 094°60'0 0.0
2015-Mar-29 21:31N 29°41' W 094°60'0 0.0
2015-Mar-29 20:31N 29°41' W 094°60'0 0.0
2015-Mar-29 19:22N 29°41' W 094°60'0 0.0
2015-Mar-29 18:31N 29°41' W 094°60'0 0.0
2015-Mar-29 17:31N 29°41' W 094°60'0 0.0
2015-Mar-29 16:31N 29°41' W 094°60'0 0.0
2015-Mar-29 15:31N 29°41' W 094°60'0 0.0
2015-Mar-29 14:31N 29°41' W 094°60'0 0.0
2015-Mar-29 13:28N 29°41' W 094°60'0 0.0
2015-Mar-29 12:31N 29°41' W 094°60'0 0.0
2015-Mar-29 11:31N 29°41' W 094°60'0 0.0
2015-Mar-29 10:31N 29°41' W 094°60'0 0.0
2015-Mar-29 09:31N 29°41' W 094°60'0 0.0
2015-Mar-29 08:31N 29°41' W 094°60'0 0.0
2015-Mar-29 07:31N 29°41' W 094°60'0 0.0
2015-Mar-29 06:31N 29°41' W 094°60'0 0.0
2015-Mar-29 05:31N 29°41' W 094°60'0 0.0
2015-Mar-29 04:31N 29°41' W 094°60'0 0.0
2015-Mar-29 03:31N 29°41' W 094°60'0 0.0
2015-Mar-29 02:31N 29°41' W 094°60'0 0.0
2015-Mar-29 01:31N 29°41' W 094°60'0 0.0
2015-Mar-29 00:31N 29°41' W 094°60'0 0.0
2015-Mar-28 23:31N 29°41' W 094°60'0 0.0
2015-Mar-28 22:31N 29°41' W 094°60'0 0.0
2015-Mar-28 21:31N 29°41' W 094°60'0 0.0
2015-Mar-28 20:31N 29°41' W 094°60'0 0.0
2015-Mar-28 19:31N 29°41' W 094°60'0 0.0
2015-Mar-28 18:31N 29°41' W 094°60'0 0.0
2015-Mar-28 17:31N 29°41' W 094°60'0 0.0
2015-Mar-28 16:31N 29°41' W 094°60'0 0.0
2015-Mar-28 15:31N 29°41' W 094°60'0 0.0
2015-Mar-28 14:28N 29°41' W 094°60'0 0.0
2015-Mar-28 13:31N 29°41' W 094°60'0 0.0
2015-Mar-28 12:31N 29°41' W 094°60'0 0.0
2015-Mar-28 11:31N 29°41' W 094°60'0 0.0
2015-Mar-28 10:31N 29°41' W 094°60'0 0.0
2015-Mar-28 09:31N 29°41' W 094°60'0 0.0
2015-Mar-28 08:31N 29°41' W 094°60'0 0.0
2015-Mar-28 07:31N 29°41' W 094°60'0 0.0
2015-Mar-28 06:31N 29°41' W 094°60'0 0.0
2015-Mar-28 05:31N 29°41' W 094°60'0 0.0
2015-Mar-28 04:31N 29°41' W 094°60'0 0.0
2015-Mar-28 03:28N 29°41' W 094°60'0 0.0
2015-Mar-28 02:33N 29°41' W 094°60'4 4.4
2015-Mar-28 01:33N 29°37' W 094°57'9 8.9
2015-Mar-28 00:33N 29°29' W 094°52'9 9.0
2015-Mar-27 23:32N 29°21' W 094°47'  
2015-Mar-24 15:21N 29°16' W 094°32'  

Dump ship's entire track history